createdAt,value
2023-10-24T00:00:01.396Z,13.16
2023-10-24T00:02:28.896Z,13.24
2023-10-24T00:04:56.235Z,13.44
2023-10-24T00:07:24.994Z,13.40
2023-10-24T00:09:52.892Z,13.53
2023-10-24T00:12:20.146Z,13.60
2023-10-24T00:14:58.420Z,13.43
2023-10-24T00:17:26.637Z,13.40
2023-10-24T00:19:54.680Z,13.53
2023-10-24T00:22:21.856Z,13.65
2023-10-24T00:24:54.721Z,13.74
2023-10-24T00:27:22.036Z,13.75
2023-10-24T00:29:51.353Z,13.50
2023-10-24T00:32:19.771Z,13.48
2023-10-24T00:34:47.778Z,13.63
2023-10-24T00:37:14.792Z,13.76
2023-10-24T00:39:43.115Z,13.76
2023-10-24T00:42:11.715Z,13.66
2023-10-24T00:44:38.870Z,13.63
2023-10-24T00:47:07.349Z,13.73
2023-10-24T00:49:35.096Z,13.94
2023-10-24T00:52:03.380Z,13.99
2023-10-24T00:54:35.485Z,13.72
2023-10-24T00:57:04.638Z,13.65
2023-10-24T00:59:33.460Z,13.76
2023-10-24T01:02:01.383Z,13.62
2023-10-24T01:04:29.378Z,13.68
2023-10-24T01:06:56.473Z,13.49
2023-10-24T01:09:23.638Z,13.72
2023-10-24T01:11:51.775Z,13.64
2023-10-24T01:14:19.763Z,13.59
2023-10-24T01:16:48.382Z,13.74
2023-10-24T01:19:15.909Z,13.74
2023-10-24T01:21:48.736Z,13.80
2023-10-24T01:24:17.865Z,13.74
2023-10-24T01:26:46.230Z,13.60
2023-10-24T01:29:13.423Z,13.62
2023-10-24T01:31:41.052Z,13.81
2023-10-24T01:34:09.528Z,13.85
2023-10-24T01:36:39.635Z,13.91
2023-10-24T01:39:08.672Z,13.97
2023-10-24T01:41:35.805Z,14.05
2023-10-24T01:44:02.887Z,14.04
2023-10-24T01:46:32.703Z,14.05
2023-10-24T01:49:01.217Z,14.03
2023-10-24T01:51:28.128Z,14.04
2023-10-24T01:53:55.069Z,14.04
2023-10-24T01:56:24.768Z,14.02
2023-10-24T01:58:53.457Z,14.03
2023-10-24T02:01:20.689Z,14.01
2023-10-24T02:03:48.028Z,14.02
2023-10-24T02:06:16.033Z,14.03
2023-10-24T02:08:43.276Z,13.91
2023-10-24T02:11:11.273Z,13.40
2023-10-24T02:13:40.254Z,13.61
2023-10-24T02:16:10.597Z,13.74
2023-10-24T02:18:37.642Z,13.77
2023-10-24T02:21:07.242Z,13.80
2023-10-24T02:23:35.746Z,13.84
2023-10-24T02:26:03.412Z,13.83
2023-10-24T02:28:32.613Z,13.31
2023-10-24T02:31:04.380Z,13.20
2023-10-24T02:33:32.700Z,13.40
2023-10-24T02:36:07.943Z,13.49
2023-10-24T02:38:35.034Z,13.51
2023-10-24T02:41:04.292Z,13.60
2023-10-24T02:43:32.290Z,13.66
2023-10-24T02:46:05.359Z,13.72
2023-10-24T02:48:33.610Z,13.75
2023-10-24T02:51:01.713Z,13.80
2023-10-24T02:53:29.001Z,13.74
2023-10-24T02:56:02.629Z,13.76
2023-10-24T02:58:30.019Z,13.76
2023-10-24T03:01:05.262Z,13.81
2023-10-24T03:03:35.214Z,13.84
2023-10-24T03:06:23.200Z,13.88
2023-10-24T03:08:50.936Z,13.91
2023-10-24T03:11:23.041Z,13.92
2023-10-24T03:13:55.302Z,13.94
2023-10-24T03:16:24.774Z,13.97
2023-10-24T03:18:52.408Z,13.93
2023-10-24T03:21:20.150Z,13.77
2023-10-24T03:23:47.127Z,13.57
2023-10-24T03:26:14.064Z,13.32
2023-10-24T03:28:41.554Z,13.46
2023-10-24T03:31:10.479Z,13.51
2023-10-24T03:33:47.390Z,13.58
2023-10-24T03:36:15.595Z,13.66
2023-10-24T03:38:43.189Z,13.72
2023-10-24T03:41:10.463Z,13.74
2023-10-24T03:43:38.335Z,13.76
2023-10-24T03:46:08.686Z,13.79
2023-10-24T03:48:35.702Z,13.81
2023-10-24T03:51:04.328Z,13.76
2023-10-24T03:53:31.714Z,13.77
2023-10-24T03:56:01.324Z,13.80
2023-10-24T03:58:29.388Z,13.83
2023-10-24T04:01:03.197Z,13.72
2023-10-24T04:03:30.712Z,13.73
2023-10-24T04:05:57.693Z,13.76
2023-10-24T04:08:26.032Z,13.77
2023-10-24T04:10:53.471Z,13.74
2023-10-24T04:13:21.223Z,13.72
2023-10-24T04:15:57.344Z,13.75
2023-10-24T04:18:26.182Z,13.77
2023-10-24T04:20:53.214Z,13.72
2023-10-24T04:23:20.656Z,13.67
2023-10-24T04:25:49.122Z,13.67
2023-10-24T04:28:17.568Z,13.62
2023-10-24T04:30:46.056Z,13.65
2023-10-24T04:33:13.797Z,13.50
2023-10-24T04:35:47.016Z,13.59
2023-10-24T04:38:14.557Z,13.46
2023-10-24T04:40:43.848Z,13.56
2023-10-24T04:43:14.156Z,13.59
2023-10-24T04:45:42.172Z,13.65
2023-10-24T04:48:10.266Z,13.65
2023-10-24T04:50:38.851Z,13.67
2023-10-24T04:53:06.415Z,13.61
2023-10-24T04:55:34.061Z,13.56
2023-10-24T04:58:01.385Z,13.62
2023-10-24T05:00:32.735Z,13.65
2023-10-24T05:03:00.528Z,13.65
2023-10-24T05:05:30.020Z,13.64
2023-10-24T05:07:57.051Z,13.61
2023-10-24T05:10:24.086Z,13.54
2023-10-24T05:12:51.434Z,13.52
2023-10-24T05:15:20.644Z,13.55
2023-10-24T05:17:50.555Z,13.53
2023-10-24T05:20:18.976Z,13.57
2023-10-24T05:22:46.156Z,13.62
2023-10-24T05:25:13.276Z,13.65
2023-10-24T05:27:40.189Z,13.68
2023-10-24T05:30:09.607Z,13.62
2023-10-24T05:32:38.832Z,13.66
2023-10-24T05:35:08.123Z,13.69
2023-10-24T05:37:37.733Z,13.83
2023-10-24T05:40:06.500Z,13.97
2023-10-24T05:42:33.963Z,14.03
2023-10-24T05:45:01.142Z,13.97
2023-10-24T05:47:28.726Z,13.88
2023-10-24T05:49:55.813Z,13.43
2023-10-24T05:52:25.128Z,13.10
2023-10-24T05:54:52.539Z,13.16
2023-10-24T05:57:20.087Z,13.30
2023-10-24T05:59:49.777Z,13.50
2023-10-24T06:02:16.900Z,13.72
2023-10-24T06:04:44.357Z,13.80
2023-10-24T06:07:12.199Z,13.90
2023-10-24T06:09:41.821Z,14.03
2023-10-24T06:12:10.617Z,14.13
2023-10-24T06:14:37.718Z,14.23
2023-10-24T06:17:05.253Z,14.29
2023-10-24T06:19:32.319Z,14.31
2023-10-24T06:22:00.590Z,14.32
2023-10-24T06:24:32.645Z,14.37
2023-10-24T06:27:13.007Z,14.45
2023-10-24T06:29:40.424Z,14.52
2023-10-24T06:32:08.841Z,14.60
2023-10-24T06:34:41.762Z,14.63
2023-10-24T06:37:10.531Z,14.65
2023-10-24T06:39:37.924Z,14.67
2023-10-24T06:42:06.721Z,14.69
2023-10-24T06:44:33.826Z,14.68
2023-10-24T06:47:02.040Z,14.62
2023-10-24T06:49:32.920Z,14.53
2023-10-24T06:52:00.223Z,14.54
2023-10-24T06:54:37.945Z,14.58
2023-10-24T06:57:35.028Z,14.57
2023-10-24T07:00:12.617Z,14.54
2023-10-24T07:05:23.192Z,14.53
2023-10-24T07:07:51.167Z,14.58
2023-10-24T07:10:20.848Z,14.70
2023-10-24T07:15:32.314Z,14.76
2023-10-24T07:17:59.809Z,14.77
2023-10-24T07:20:34.865Z,14.81
2023-10-24T07:23:03.354Z,14.82
2023-10-24T07:25:30.732Z,14.64
2023-10-24T07:28:03.645Z,14.58
2023-10-24T07:30:31.156Z,14.25
2023-10-24T07:32:59.319Z,13.79
2023-10-24T07:35:26.663Z,13.70
2023-10-24T07:37:55.067Z,13.57
2023-10-24T07:40:22.030Z,13.40
2023-10-24T07:42:49.155Z,13.45
2023-10-24T07:45:20.805Z,13.68
2023-10-24T07:47:48.163Z,13.82
2023-10-24T07:50:15.294Z,13.94
2023-10-24T07:52:42.465Z,14.07
2023-10-24T07:55:10.085Z,14.17
2023-10-24T07:57:37.664Z,14.20
2023-10-24T08:00:06.737Z,14.25
2023-10-24T08:02:41.812Z,14.30
2023-10-24T08:05:09.704Z,14.34
2023-10-24T08:07:36.630Z,14.40
2023-10-24T08:10:04.076Z,14.49
2023-10-24T08:12:31.200Z,14.53
2023-10-24T08:15:00.762Z,14.57
2023-10-24T08:17:27.778Z,14.60
2023-10-24T08:19:56.428Z,14.63
2023-10-24T08:22:23.856Z,14.64
2023-10-24T08:24:51.451Z,14.66
2023-10-24T08:27:18.656Z,14.68
2023-10-24T08:29:45.546Z,14.68
2023-10-24T08:32:15.561Z,14.69
2023-10-24T08:34:43.467Z,14.72
2023-10-24T08:37:12.946Z,14.73
2023-10-24T08:39:40.379Z,14.72
2023-10-24T08:42:11.271Z,14.70
2023-10-24T08:44:41.325Z,14.69
2023-10-24T08:47:11.533Z,14.71
2023-10-24T08:49:40.050Z,14.71
2023-10-24T08:52:22.579Z,14.71
2023-10-24T08:54:55.545Z,14.74
2023-10-24T08:57:28.986Z,14.76
2023-10-24T08:59:58.531Z,14.78
2023-10-24T09:02:26.266Z,14.77
2023-10-24T09:04:53.360Z,14.67
2023-10-24T09:07:20.469Z,14.62
2023-10-24T09:09:50.174Z,14.54
2023-10-24T09:12:18.846Z,14.23
2023-10-24T09:14:54.109Z,13.95
2023-10-24T09:17:27.173Z,13.98
2023-10-24T09:19:56.973Z,13.82
2023-10-24T09:22:28.875Z,13.72
2023-10-24T09:24:57.955Z,13.23
2023-10-24T09:27:29.619Z,13.18
2023-10-24T09:29:57.556Z,13.02
2023-10-24T09:32:26.581Z,13.03
2023-10-24T09:34:54.400Z,12.98
2023-10-24T09:37:21.461Z,13.02
2023-10-24T09:39:57.061Z,13.12
2023-10-24T09:42:31.660Z,13.21
2023-10-24T09:45:03.411Z,13.02
2023-10-24T09:47:34.215Z,12.95
2023-10-24T09:50:04.222Z,13.11
2023-10-24T09:52:32.817Z,13.18
2023-10-24T09:55:01.650Z,13.17
2023-10-24T09:57:32.742Z,13.20
2023-10-24T10:00:01.128Z,13.11
2023-10-24T10:02:29.227Z,13.29
2023-10-24T10:04:56.924Z,13.48
2023-10-24T10:07:27.062Z,13.44
2023-10-24T10:09:55.621Z,16.01
2023-10-24T10:12:23.953Z,14.48
2023-10-24T10:15:27.559Z,14.17
2023-10-24T10:18:15.767Z,14.24
2023-10-24T10:21:06.869Z,14.20
2023-10-24T10:24:12.703Z,14.23
2023-10-24T10:27:02.569Z,14.26
2023-10-24T10:29:48.756Z,13.95
2023-10-24T10:32:38.162Z,13.74
2023-10-24T10:35:22.570Z,13.82
2023-10-24T10:38:01.569Z,13.90
2023-10-24T10:40:29.811Z,13.88
2023-10-24T10:42:57.130Z,13.66
2023-10-24T10:45:29.951Z,13.81
2023-10-24T10:48:01.659Z,14.07
2023-10-24T10:50:30.286Z,14.24
2023-10-24T10:53:21.204Z,14.21
2023-10-24T10:56:18.274Z,14.19
2023-10-24T10:59:18.028Z,13.98
2023-10-24T11:02:03.367Z,14.02
2023-10-24T11:04:33.226Z,14.11
2023-10-24T11:07:01.793Z,14.10
2023-10-24T11:09:35.667Z,13.88
2023-10-24T11:12:27.847Z,13.83
2023-10-24T11:15:25.362Z,13.77
2023-10-24T11:17:54.716Z,13.69
2023-10-24T11:20:25.803Z,13.69
2023-10-24T11:22:53.002Z,13.65
2023-10-24T11:25:22.792Z,13.69
2023-10-24T11:27:50.262Z,13.76
2023-10-24T11:30:17.702Z,13.68
2023-10-24T11:32:46.927Z,13.85
2023-10-24T11:35:13.918Z,13.93
2023-10-24T11:37:42.695Z,14.10
2023-10-24T11:40:10.952Z,14.22
2023-10-24T11:42:37.957Z,14.21
2023-10-24T11:45:06.427Z,13.98
2023-10-24T11:47:34.173Z,13.79
2023-10-24T11:50:02.490Z,13.92
2023-10-24T11:52:32.496Z,14.10
2023-10-24T11:55:02.805Z,14.22
2023-10-24T11:57:32.288Z,14.38
2023-10-24T11:59:59.886Z,14.44
2023-10-24T12:02:27.133Z,14.53
2023-10-24T12:04:58.097Z,14.48
2023-10-24T12:07:27.458Z,14.46
2023-10-24T12:10:10.677Z,14.44
2023-10-24T12:12:38.028Z,14.14
2023-10-24T12:15:07.509Z,14.07
2023-10-24T12:17:36.242Z,14.12
2023-10-24T12:20:10.528Z,14.11
2023-10-24T12:22:37.985Z,14.14
2023-10-24T12:25:08.879Z,14.26
2023-10-24T12:27:37.128Z,14.41
2023-10-24T12:30:05.774Z,14.51
2023-10-24T12:32:32.836Z,14.60
2023-10-24T12:35:00.536Z,14.65
2023-10-24T12:37:27.518Z,14.56
2023-10-24T12:39:55.328Z,14.37
2023-10-24T12:42:23.605Z,14.52
2023-10-24T12:44:52.187Z,14.66
2023-10-24T12:47:19.655Z,14.63
2023-10-24T12:49:47.220Z,14.52
2023-10-24T12:52:16.377Z,14.01
2023-10-24T12:54:44.260Z,13.86
2023-10-24T12:57:11.536Z,13.81
2023-10-24T12:59:38.794Z,14.01
2023-10-24T13:02:07.465Z,13.69
2023-10-24T13:04:35.153Z,13.67
2023-10-24T13:07:03.995Z,13.84
2023-10-24T13:09:31.698Z,13.91
2023-10-24T13:12:00.756Z,13.90
2023-10-24T13:14:27.715Z,13.75
2023-10-24T13:17:12.903Z,13.76
2023-10-24T13:19:47.760Z,13.70
2023-10-24T13:22:14.990Z,13.62
2023-10-24T13:24:42.017Z,13.56
2023-10-24T13:27:10.146Z,13.70
2023-10-24T13:29:37.521Z,13.63
2023-10-24T13:32:06.520Z,13.66
2023-10-24T13:37:05.466Z,13.60
2023-10-24T13:39:32.542Z,13.69
2023-10-24T13:42:00.014Z,13.75
2023-10-24T13:44:27.359Z,13.83
2023-10-24T13:46:56.112Z,13.88
2023-10-24T13:49:23.396Z,13.93
2023-10-24T13:51:53.217Z,13.79
2023-10-24T13:54:21.733Z,13.86
2023-10-24T13:56:50.104Z,14.05
2023-10-24T13:59:20.938Z,14.23
2023-10-24T14:01:50.732Z,14.39
2023-10-24T14:04:20.996Z,14.62
2023-10-24T14:06:49.674Z,14.77
2023-10-24T14:09:18.185Z,14.82
2023-10-24T14:11:47.332Z,14.86
2023-10-24T14:14:16.339Z,14.92
2023-10-24T14:16:44.303Z,14.97
2023-10-24T14:19:11.583Z,14.99
2023-10-24T14:21:39.062Z,14.76
2023-10-24T14:24:08.141Z,14.50
2023-10-24T14:26:36.005Z,14.60
2023-10-24T14:29:06.892Z,14.74
2023-10-24T14:31:35.569Z,14.52
2023-10-24T14:34:03.378Z,14.71
2023-10-24T14:36:30.985Z,14.82
2023-10-24T14:38:58.100Z,14.69
2023-10-24T14:41:25.065Z,14.40
2023-10-24T14:43:52.377Z,14.48
2023-10-24T14:46:23.713Z,14.46
2023-10-24T14:48:52.405Z,14.51
2023-10-24T14:51:19.677Z,14.47
2023-10-24T14:53:46.582Z,14.38
2023-10-24T14:56:13.742Z,14.42
2023-10-24T14:58:41.155Z,14.32
2023-10-24T15:01:09.718Z,14.44
2023-10-24T15:03:38.576Z,14.50
2023-10-24T15:06:07.464Z,14.57
2023-10-24T15:08:34.735Z,14.45
2023-10-24T15:11:02.144Z,14.48
2023-10-24T15:13:29.049Z,14.51
2023-10-24T15:15:57.870Z,14.44
2023-10-24T15:18:24.864Z,14.68
2023-10-24T15:20:53.407Z,14.83
2023-10-24T15:23:21.919Z,14.77
2023-10-24T15:25:51.340Z,14.88
2023-10-24T15:28:19.371Z,15.01
2023-10-24T15:30:46.671Z,15.13
2023-10-24T15:33:13.631Z,15.23
2023-10-24T15:35:40.587Z,15.30
2023-10-24T15:38:11.724Z,15.29
2023-10-24T15:40:39.328Z,15.18
2023-10-24T15:43:07.704Z,15.24
2023-10-24T15:45:34.994Z,15.28
2023-10-24T15:48:03.655Z,15.31
2023-10-24T15:50:30.584Z,15.33
2023-10-24T15:52:57.954Z,15.36
2023-10-24T15:55:27.872Z,15.37
2023-10-24T15:57:57.869Z,15.37
2023-10-24T16:00:29.697Z,15.36
2023-10-24T16:02:57.230Z,15.08
2023-10-24T16:05:24.294Z,15.18
2023-10-24T16:07:51.448Z,14.76
2023-10-24T16:10:21.598Z,14.61
2023-10-24T16:12:50.123Z,14.79
2023-10-24T16:15:17.366Z,14.92
2023-10-24T16:17:44.236Z,14.94
2023-10-24T16:20:12.590Z,15.04
2023-10-24T16:22:39.748Z,15.04
2023-10-24T16:25:08.878Z,14.99
2023-10-24T16:27:36.659Z,15.06
2023-10-24T16:30:07.420Z,15.11
2023-10-24T16:32:34.870Z,15.14
2023-10-24T16:35:02.498Z,15.13
2023-10-24T16:37:29.466Z,15.16
2023-10-24T16:39:57.524Z,15.14
2023-10-24T16:42:24.822Z,15.08
2023-10-24T16:44:52.382Z,15.10
2023-10-24T16:47:20.938Z,15.14
2023-10-24T16:49:48.737Z,15.17
2023-10-24T16:52:16.169Z,15.18
2023-10-24T16:54:43.639Z,15.22
2023-10-24T16:57:11.635Z,15.23
2023-10-24T16:59:39.547Z,15.25
2023-10-24T17:02:07.309Z,15.23
2023-10-24T17:04:38.635Z,15.22
2023-10-24T17:07:05.940Z,15.22
2023-10-24T17:09:33.508Z,14.99
2023-10-24T17:12:00.816Z,15.13
2023-10-24T17:14:27.700Z,15.17
2023-10-24T17:16:56.545Z,15.18
2023-10-24T17:19:24.139Z,15.16
2023-10-24T17:21:52.818Z,15.15
2023-10-24T17:24:21.675Z,15.17
2023-10-24T17:26:49.001Z,15.17
2023-10-24T17:29:18.037Z,15.15
2023-10-24T17:31:45.124Z,15.12
2023-10-24T17:34:14.603Z,15.12
2023-10-24T17:36:41.880Z,15.09
2023-10-24T17:39:10.477Z,15.04
2023-10-24T17:41:37.412Z,15.07
2023-10-24T17:44:04.893Z,15.01
2023-10-24T17:46:31.859Z,15.01
2023-10-24T17:48:59.571Z,14.97
2023-10-24T17:51:26.479Z,14.95
2023-10-24T17:53:54.180Z,14.95
2023-10-24T17:56:24.067Z,14.89
2023-10-24T17:58:51.175Z,14.87
2023-10-24T18:01:18.321Z,14.82
2023-10-24T18:03:45.897Z,14.82
2023-10-24T18:06:16.189Z,14.84
2023-10-24T18:08:43.268Z,14.81
2023-10-24T18:11:18.175Z,14.80
2023-10-24T18:13:46.918Z,14.78
2023-10-24T18:16:15.669Z,14.69
2023-10-24T18:18:43.012Z,14.68
2023-10-24T18:21:13.715Z,14.67
2023-10-24T18:23:43.098Z,14.67
2023-10-24T18:26:10.609Z,14.62
2023-10-24T18:28:38.206Z,14.61
2023-10-24T18:31:06.972Z,14.57
2023-10-24T18:33:37.415Z,14.57
2023-10-24T18:36:07.684Z,14.56
2023-10-24T18:38:38.956Z,14.54
2023-10-24T18:41:06.128Z,14.53
2023-10-24T18:43:35.110Z,14.48
2023-10-24T18:46:06.899Z,14.48
2023-10-24T18:48:35.685Z,14.42
2023-10-24T18:51:13.218Z,14.42
2023-10-24T18:53:48.553Z,14.33
2023-10-24T18:56:20.562Z,14.30
2023-10-24T18:58:51.669Z,14.30
2023-10-24T19:04:10.012Z,14.28
2023-10-24T19:06:40.155Z,14.29
2023-10-24T19:09:07.630Z,14.29
2023-10-24T19:11:35.430Z,14.30
2023-10-24T19:14:03.571Z,14.26
2023-10-24T19:16:36.425Z,14.26
2023-10-24T19:19:04.213Z,14.25
2023-10-24T19:21:31.833Z,14.24
2023-10-24T19:24:01.231Z,14.24
2023-10-24T19:26:31.872Z,14.22
2023-10-24T19:28:59.839Z,14.20
2023-10-24T19:31:28.000Z,14.23
2023-10-24T19:33:58.262Z,14.27
2023-10-24T19:36:26.581Z,14.29
2023-10-24T19:38:54.315Z,14.31
2023-10-24T19:41:23.982Z,14.32
2023-10-24T19:43:51.967Z,14.32
2023-10-24T19:46:25.357Z,14.31
2023-10-24T19:48:53.697Z,14.31
2023-10-24T19:51:23.588Z,14.28
2023-10-24T19:53:51.494Z,14.25
2023-10-24T19:56:21.239Z,14.16
2023-10-24T19:58:51.911Z,14.14
2023-10-24T20:01:19.966Z,14.15
2023-10-24T20:03:48.691Z,14.03
2023-10-24T20:06:16.798Z,14.02
2023-10-24T20:08:46.532Z,14.04
2023-10-24T20:12:33.684Z,13.97
2023-10-24T20:14:02.741Z,13.61
2023-10-24T20:16:34.311Z,13.57
2023-10-24T20:19:02.349Z,13.64
2023-10-24T20:21:31.079Z,13.41
2023-10-24T20:24:00.401Z,13.41
2023-10-24T20:26:28.374Z,13.36
2023-10-24T20:28:55.458Z,13.43
2023-10-24T20:31:22.449Z,13.52
2023-10-24T20:33:49.948Z,13.63
2023-10-24T20:36:17.018Z,13.69
2023-10-24T20:38:44.150Z,13.73
2023-10-24T20:41:13.281Z,13.77
2023-10-24T20:43:40.327Z,13.43
2023-10-24T20:46:07.749Z,13.25
2023-10-24T20:48:36.283Z,13.21
2023-10-24T20:51:03.683Z,13.16
2023-10-24T20:53:31.313Z,13.32
2023-10-24T20:56:00.789Z,13.40
2023-10-24T20:58:29.716Z,13.49
2023-10-24T21:00:57.030Z,13.57
2023-10-24T21:03:24.276Z,13.60
2023-10-24T21:05:51.240Z,13.59
2023-10-24T21:08:21.224Z,13.48
2023-10-24T21:10:55.527Z,13.52
2023-10-24T21:13:24.158Z,13.39
2023-10-24T21:15:57.348Z,13.44
2023-10-24T21:18:24.931Z,13.40
2023-10-24T21:20:52.649Z,13.46
2023-10-24T21:23:19.828Z,13.47
2023-10-24T21:25:49.407Z,13.29
2023-10-24T21:28:18.011Z,13.38
2023-10-24T21:30:47.359Z,13.47
2023-10-24T21:33:16.245Z,13.56
2023-10-24T21:35:43.712Z,13.63
2023-10-24T21:38:11.004Z,13.66
2023-10-24T21:40:38.291Z,13.68
2023-10-24T21:43:07.792Z,13.65
2023-10-24T21:45:34.852Z,13.50
2023-10-24T21:48:01.812Z,13.49
2023-10-24T21:50:30.542Z,13.53
2023-10-24T21:52:57.667Z,13.61
2023-10-24T21:55:24.692Z,13.64
2023-10-24T21:57:51.709Z,13.69
2023-10-24T22:00:19.054Z,13.71
2023-10-24T22:02:46.469Z,13.73
2023-10-24T22:05:13.970Z,13.60
2023-10-24T22:07:42.685Z,13.40
2023-10-24T22:10:10.468Z,13.46
2023-10-24T22:12:38.416Z,13.53
2023-10-24T22:15:14.106Z,13.59
2023-10-24T22:17:42.356Z,13.62
2023-10-24T22:20:10.734Z,13.64
2023-10-24T22:22:38.008Z,13.64
2023-10-24T22:25:08.245Z,13.61
2023-10-24T22:27:35.579Z,13.53
2023-10-24T22:30:03.641Z,13.30
2023-10-24T22:32:32.182Z,13.28
2023-10-24T22:34:59.234Z,13.03
2023-10-24T22:37:27.129Z,12.86
2023-10-24T22:39:54.259Z,12.83
2023-10-24T22:42:23.873Z,12.88
2023-10-24T22:44:50.914Z,12.64
2023-10-24T22:47:17.923Z,12.65
2023-10-24T22:49:50.034Z,12.68
2023-10-24T22:52:17.018Z,12.74
2023-10-24T22:54:44.684Z,12.75
2023-10-24T22:57:11.870Z,12.87
2023-10-24T22:59:40.376Z,12.94
2023-10-24T23:02:07.759Z,12.93
2023-10-24T23:04:34.688Z,12.84
2023-10-24T23:07:03.939Z,12.68
2023-10-24T23:09:31.260Z,12.76
2023-10-24T23:11:58.236Z,12.75
2023-10-24T23:14:25.448Z,12.74
2023-10-24T23:16:56.378Z,12.75
2023-10-24T23:19:23.588Z,12.74
2023-10-24T23:21:58.484Z,12.67
2023-10-24T23:24:27.456Z,12.58
2023-10-24T23:26:56.036Z,12.59
2023-10-24T23:29:23.482Z,12.58
2023-10-24T23:31:52.448Z,12.49
2023-10-24T23:34:24.612Z,12.57
2023-10-24T23:36:51.665Z,12.44
2023-10-24T23:39:19.261Z,12.31
2023-10-24T23:41:47.799Z,12.11
2023-10-24T23:44:15.099Z,12.05
2023-10-24T23:46:42.388Z,12.09
2023-10-24T23:49:09.340Z,12.07
2023-10-24T23:51:38.274Z,12.05
2023-10-24T23:54:06.345Z,12.08
2023-10-24T23:56:33.411Z,12.09
2023-10-24T23:59:01.823Z,12.07
